createdAt,value
2018-12-07T00:00:28.537Z,4.93
2018-12-07T00:02:56.791Z,6.23
2018-12-07T00:05:25.075Z,5.20
2018-12-07T00:07:53.325Z,4.97
2018-12-07T00:10:21.583Z,4.90
2018-12-07T00:12:49.826Z,5.63
2018-12-07T00:15:18.059Z,5.40
2018-12-07T00:17:46.945Z,5.77
2018-12-07T00:20:15.201Z,4.97
2018-12-07T00:22:43.681Z,6.03
2018-12-07T00:25:13.671Z,5.47
2018-12-07T00:27:42.001Z,5.40
2018-12-07T00:30:10.305Z,5.73
2018-12-07T00:32:38.677Z,5.40
2018-12-07T00:35:06.913Z,5.23
2018-12-07T00:37:41.831Z,5.40
2018-12-07T00:40:10.134Z,5.23
2018-12-07T00:42:39.038Z,5.63
2018-12-07T00:45:07.374Z,5.83
2018-12-07T00:47:35.626Z,6.03
2018-12-07T00:50:04.746Z,5.60
2018-12-07T00:52:33.058Z,5.87
2018-12-07T00:55:01.519Z,5.07
2018-12-07T00:57:29.740Z,5.67
2018-12-07T00:59:57.971Z,5.10
2018-12-07T01:02:26.251Z,5.00
2018-12-07T01:04:54.502Z,4.57
2018-12-07T01:07:23.386Z,4.60
2018-12-07T01:09:52.166Z,4.93
2018-12-07T01:12:20.490Z,4.60
2018-12-07T01:14:49.839Z,5.23
2018-12-07T01:17:18.098Z,4.43
2018-12-07T01:19:46.373Z,5.00
2018-12-07T01:22:14.729Z,4.67
2018-12-07T01:24:43.053Z,4.70
2018-12-07T01:27:11.260Z,4.67
2018-12-07T01:29:39.581Z,4.20
2018-12-07T01:32:07.897Z,4.87
2018-12-07T01:34:36.146Z,4.73
2018-12-07T01:37:04.449Z,4.37
2018-12-07T01:39:32.657Z,4.00
2018-12-07T01:42:00.896Z,4.40
2018-12-07T01:44:29.196Z,4.70
2018-12-07T01:46:58.049Z,4.23
2018-12-07T01:49:26.778Z,4.20
2018-12-07T01:51:55.023Z,3.70
2018-12-07T01:54:23.297Z,4.33
2018-12-07T01:56:51.557Z,4.27
2018-12-07T01:59:19.841Z,3.63
2018-12-07T02:01:48.485Z,3.60
2018-12-07T02:04:17.352Z,4.23
2018-12-07T02:06:46.125Z,3.67
2018-12-07T02:09:15.774Z,3.73
2018-12-07T02:11:44.037Z,4.00
2018-12-07T02:14:12.425Z,3.40
2018-12-07T02:16:41.311Z,3.57
2018-12-07T02:19:10.158Z,3.20
2018-12-07T02:21:38.473Z,3.00
2018-12-07T02:24:06.737Z,3.40
2018-12-07T02:26:35.990Z,3.17
2018-12-07T02:29:05.281Z,3.40
2018-12-07T02:34:08.506Z,3.93
2018-12-07T02:36:37.314Z,3.73
2018-12-07T02:39:06.914Z,3.20
2018-12-07T02:41:35.142Z,3.80
2018-12-07T02:44:03.708Z,4.10
2018-12-07T02:46:31.991Z,3.57
2018-12-07T02:49:00.259Z,4.53
2018-12-07T02:51:28.516Z,3.90
2018-12-07T02:53:58.610Z,3.70
2018-12-07T02:56:26.861Z,4.27
2018-12-07T02:58:55.841Z,3.80
2018-12-07T03:01:24.138Z,4.33
2018-12-07T03:03:52.370Z,4.93
2018-12-07T03:06:20.634Z,4.20
2018-12-07T03:08:49.505Z,3.70
2018-12-07T03:11:17.741Z,4.30
2018-12-07T03:13:45.982Z,4.23
2018-12-07T03:16:15.006Z,4.13
2018-12-07T03:18:43.269Z,4.77
2018-12-07T03:21:11.802Z,4.80
2018-12-07T03:23:41.027Z,4.83
2018-12-07T03:26:09.333Z,4.70
2018-12-07T03:28:37.585Z,4.87
2018-12-07T03:31:06.443Z,4.27
2018-12-07T03:33:35.265Z,4.20
2018-12-07T03:36:06.185Z,4.50
2018-12-07T03:38:35.038Z,4.60
2018-12-07T03:41:03.313Z,4.43
2018-12-07T03:43:31.633Z,4.70
2018-12-07T03:45:59.859Z,4.20
2018-12-07T03:48:28.137Z,4.40
2018-12-07T03:50:56.409Z,4.40
2018-12-07T03:53:24.782Z,4.47
2018-12-07T03:55:53.058Z,4.93
2018-12-07T03:58:21.320Z,5.07
2018-12-07T04:00:49.603Z,4.90
2018-12-07T04:03:28.311Z,5.50
2018-12-07T04:05:56.683Z,4.63
2018-12-07T04:08:25.801Z,6.10
2018-12-07T04:10:54.108Z,5.33
2018-12-07T04:13:25.609Z,4.77
2018-12-07T04:15:53.934Z,4.70
2018-12-07T04:18:22.217Z,5.23
2018-12-07T04:20:50.569Z,4.87
2018-12-07T04:23:19.001Z,6.27
2018-12-07T04:25:48.290Z,4.10
2018-12-07T04:28:16.668Z,4.60
2018-12-07T04:30:45.570Z,4.27
2018-12-07T04:33:14.166Z,6.23
2018-12-07T04:35:45.314Z,3.40
2018-12-07T04:38:13.633Z,3.37
2018-12-07T04:40:43.145Z,4.33
2018-12-07T04:43:11.406Z,3.27
2018-12-07T04:45:40.202Z,3.37
2018-12-07T04:48:09.167Z,4.37
2018-12-07T04:50:37.502Z,4.07
2018-12-07T04:53:06.736Z,4.70
2018-12-07T04:55:35.898Z,4.67
2018-12-07T04:58:05.145Z,5.47
2018-12-07T05:00:33.539Z,5.00
2018-12-07T05:03:01.914Z,4.90
2018-12-07T05:05:31.262Z,4.60
2018-12-07T05:08:00.712Z,5.20
2018-12-07T05:10:28.989Z,4.30
2018-12-07T05:12:57.283Z,4.33
2018-12-07T05:15:26.653Z,5.00
2018-12-07T05:17:54.946Z,5.07
2018-12-07T05:20:23.816Z,5.10
2018-12-07T05:22:53.088Z,4.80
2018-12-07T05:25:21.358Z,4.83
2018-12-07T05:27:49.712Z,5.23
2018-12-07T05:30:18.886Z,4.43
2018-12-07T05:32:53.007Z,5.33
2018-12-07T05:35:21.299Z,4.70
2018-12-07T05:37:49.984Z,4.77
2018-12-07T05:40:18.266Z,4.33
2018-12-07T05:42:46.666Z,3.50
2018-12-07T05:45:15.327Z,3.20
2018-12-07T05:47:44.467Z,2.57
2018-12-07T05:50:12.735Z,2.30
2018-12-07T05:52:41.269Z,1.97
2018-12-07T05:55:09.533Z,1.47
2018-12-07T05:57:37.841Z,1.53
2018-12-07T06:00:07.630Z,1.67
2018-12-07T06:02:35.917Z,1.83
2018-12-07T06:05:05.880Z,1.33
2018-12-07T06:07:34.226Z,1.83
2018-12-07T06:10:02.528Z,1.20
2018-12-07T06:12:30.795Z,1.77
2018-12-07T06:15:00.330Z,1.63
2018-12-07T06:17:28.773Z,2.07
2018-12-07T06:19:57.501Z,1.65
2018-12-07T06:22:25.709Z,1.70
2018-12-07T06:24:54.010Z,1.67
2018-12-07T06:27:22.423Z,2.27
2018-12-07T06:29:51.416Z,2.70
2018-12-07T06:32:19.650Z,3.13
2018-12-07T06:34:47.970Z,3.93
2018-12-07T06:37:16.283Z,3.93
2018-12-07T06:39:44.576Z,3.47
2018-12-07T06:42:12.751Z,3.27
2018-12-07T06:44:40.975Z,5.90
2018-12-07T06:47:09.198Z,5.40
2018-12-07T06:49:38.511Z,2.60
2018-12-07T06:52:06.728Z,5.10
2018-12-07T06:54:35.042Z,3.70
2018-12-07T06:57:03.377Z,3.50
2018-12-07T06:59:31.615Z,2.37
2018-12-07T07:02:01.017Z,2.77
2018-12-07T07:04:29.414Z,2.70
2018-12-07T07:06:58.874Z,1.90
2018-12-07T07:09:28.027Z,1.90
2018-12-07T07:11:56.362Z,2.87
2018-12-07T07:14:24.656Z,2.40
2018-12-07T07:16:59.535Z,2.63
2018-12-07T07:19:27.907Z,2.40
2018-12-07T07:21:56.194Z,3.70
2018-12-07T07:24:24.610Z,2.00
2018-12-07T07:26:52.897Z,3.90
2018-12-07T07:29:21.196Z,2.20
2018-12-07T07:31:49.657Z,2.60
2018-12-07T07:34:17.911Z,2.90
2018-12-07T07:36:46.440Z,3.93
2018-12-07T07:39:15.512Z,5.60
2018-12-07T07:41:43.784Z,4.13
2018-12-07T07:44:11.999Z,2.47
2018-12-07T07:46:40.297Z,5.50
2018-12-07T07:49:08.553Z,4.77
2018-12-07T07:51:36.815Z,3.80
2018-12-07T07:54:05.078Z,3.27
2018-12-07T07:56:33.686Z,4.33
2018-12-07T07:59:01.890Z,4.00
2018-12-07T08:01:30.335Z,4.63
2018-12-07T08:03:58.622Z,4.47
2018-12-07T08:06:26.929Z,4.80
2018-12-07T08:08:55.169Z,5.53
2018-12-07T08:11:24.016Z,5.87
2018-12-07T08:13:52.234Z,5.67
2018-12-07T08:16:21.401Z,11.27
2018-12-07T08:18:50.367Z,14.43
2018-12-07T08:21:19.730Z,8.63
2018-12-07T08:23:48.046Z,6.60
2018-12-07T08:26:16.401Z,6.27
2018-12-07T08:28:44.690Z,7.40
2018-12-07T08:31:13.006Z,6.30
2018-12-07T08:33:41.279Z,7.67
2018-12-07T08:36:10.399Z,6.33
2018-12-07T08:38:38.642Z,9.13
2018-12-07T08:41:06.913Z,7.73
2018-12-07T08:43:35.213Z,5.23
2018-12-07T08:46:03.479Z,4.97
2018-12-07T08:48:32.322Z,4.47
2018-12-07T08:51:00.637Z,4.60
2018-12-07T08:53:28.940Z,5.13
2018-12-07T08:55:58.277Z,3.70
2018-12-07T08:58:27.767Z,4.50
2018-12-07T09:01:04.157Z,4.37
2018-12-07T09:03:32.430Z,3.57
2018-12-07T09:06:00.727Z,4.00
2018-12-07T09:08:29.150Z,3.70
2018-12-07T09:10:58.313Z,5.30
2018-12-07T09:13:26.893Z,3.97
2018-12-07T09:15:55.373Z,4.97
2018-12-07T09:18:23.776Z,3.47
2018-12-07T09:20:54.122Z,6.17
2018-12-07T09:23:20.574Z,3.50
2018-12-07T09:25:48.970Z,3.87
2018-12-07T09:28:17.377Z,4.60
2018-12-07T09:30:45.750Z,3.77
2018-12-07T09:33:14.142Z,5.83
2018-12-07T09:35:42.449Z,3.80
2018-12-07T09:38:13.208Z,3.20
2018-12-07T09:40:40.760Z,4.07
2018-12-07T09:43:09.147Z,3.67
2018-12-07T09:45:37.469Z,3.20
2018-12-07T09:48:05.818Z,4.30
2018-12-07T09:50:34.777Z,4.17
2018-12-07T09:53:03.737Z,3.90
2018-12-07T09:55:34.840Z,2.47
2018-12-07T09:58:03.129Z,3.10
2018-12-07T10:00:33.761Z,3.17
2018-12-07T10:03:02.596Z,2.83
2018-12-07T10:05:32.943Z,5.60
2018-12-07T10:08:01.382Z,5.10
2018-12-07T10:10:29.649Z,2.43
2018-12-07T10:12:59.010Z,3.20
2018-12-07T10:15:27.335Z,2.97
2018-12-07T10:17:55.642Z,2.47
2018-12-07T10:20:23.965Z,6.67
2018-12-07T10:22:53.469Z,6.93
2018-12-07T10:25:21.648Z,2.67
2018-12-07T10:27:50.885Z,4.93
2018-12-07T10:30:22.167Z,4.13
2018-12-07T10:32:52.945Z,6.97
2018-12-07T10:35:19.668Z,3.23
2018-12-07T10:37:47.989Z,6.63
2018-12-07T10:40:16.232Z,2.63
2018-12-07T10:42:44.676Z,4.67
2018-12-07T10:45:12.992Z,5.00
2018-12-07T10:47:41.329Z,9.10
2018-12-07T10:50:09.613Z,9.50
2018-12-07T10:52:38.206Z,4.87
2018-12-07T10:55:08.134Z,7.80
2018-12-07T10:57:35.524Z,5.10
2018-12-07T11:00:03.864Z,4.53
2018-12-07T11:02:39.003Z,2.40
2018-12-07T11:05:12.846Z,8.40
2018-12-07T11:07:46.618Z,4.23
2018-12-07T11:10:20.264Z,6.37
2018-12-07T11:12:55.546Z,5.07
2018-12-07T11:15:31.502Z,6.43
2018-12-07T11:18:05.138Z,6.70
2018-12-07T11:20:40.171Z,5.37
2018-12-07T11:23:13.894Z,4.07
2018-12-07T11:25:47.780Z,3.77
2018-12-07T11:28:21.398Z,6.37
2018-12-07T11:30:55.064Z,4.80
2018-12-07T11:33:30.619Z,4.07
2018-12-07T11:35:58.946Z,5.90
2018-12-07T11:38:27.372Z,4.87
2018-12-07T11:40:55.629Z,4.80
2018-12-07T11:43:23.982Z,4.73
2018-12-07T11:45:52.229Z,4.83
2018-12-07T11:48:28.086Z,5.53
2018-12-07T11:50:57.181Z,4.97
2018-12-07T11:53:25.650Z,5.63
2018-12-07T11:55:53.992Z,4.37
2018-12-07T11:58:22.267Z,3.57
2018-12-07T12:00:50.616Z,3.23
2018-12-07T12:03:18.874Z,3.87
2018-12-07T12:05:47.271Z,3.30
2018-12-07T12:08:15.657Z,6.30
2018-12-07T12:10:44.577Z,4.67
2018-12-07T12:13:12.889Z,3.53
2018-12-07T12:15:41.187Z,5.20
2018-12-07T12:18:09.449Z,5.00
2018-12-07T12:20:38.030Z,3.67
2018-12-07T12:23:06.342Z,6.93
2018-12-07T12:25:35.079Z,2.90
2018-12-07T12:28:03.365Z,3.03
2018-12-07T12:30:31.762Z,3.67
2018-12-07T12:33:00.034Z,3.03
2018-12-07T12:35:28.350Z,3.37
2018-12-07T12:37:56.713Z,4.80
2018-12-07T12:40:24.986Z,5.47
2018-12-07T12:42:53.737Z,4.27
2018-12-07T12:45:22.429Z,7.47
2018-12-07T12:47:50.754Z,3.37
2018-12-07T12:50:24.444Z,7.63
2018-12-07T12:52:53.238Z,5.73
2018-12-07T12:55:21.538Z,3.03
2018-12-07T12:57:49.791Z,4.27
2018-12-07T13:00:19.211Z,4.47
2018-12-07T13:02:47.476Z,3.23
2018-12-07T13:05:15.802Z,4.40
2018-12-07T13:07:44.033Z,2.63
2018-12-07T13:10:12.369Z,3.03
2018-12-07T13:12:40.628Z,2.57
2018-12-07T13:15:09.707Z,2.40
2018-12-07T13:17:37.959Z,2.37
2018-12-07T13:20:07.447Z,2.13
2018-12-07T13:22:35.962Z,3.03
2018-12-07T13:25:09.961Z,2.37
2018-12-07T13:27:38.214Z,4.10
2018-12-07T13:30:10.652Z,1.80
2018-12-07T13:32:41.162Z,3.03
2018-12-07T13:35:09.462Z,1.97
2018-12-07T13:37:37.699Z,1.60
2018-12-07T13:40:06.709Z,1.40
2018-12-07T13:42:34.881Z,1.37
2018-12-07T13:45:04.619Z,1.23
2018-12-07T13:47:31.686Z,1.13
2018-12-07T13:50:11.933Z,0.90
2018-12-07T13:52:40.629Z,4.97
2018-12-07T13:55:08.987Z,1.53
2018-12-07T13:57:38.197Z,1.10
2018-12-07T14:00:07.612Z,1.57
2018-12-07T14:02:35.935Z,3.27
2018-12-07T14:05:04.516Z,2.23
2018-12-07T14:07:32.878Z,1.40
2018-12-07T14:10:01.023Z,1.20
2018-12-07T14:12:29.468Z,1.17
2018-12-07T14:14:57.701Z,1.63
2018-12-07T14:17:26.096Z,1.00
2018-12-07T14:19:54.306Z,3.03
2018-12-07T14:22:22.777Z,1.50
2018-12-07T14:24:51.200Z,2.67
2018-12-07T14:27:19.392Z,0.93
2018-12-07T14:29:47.896Z,0.90
2018-12-07T14:32:16.062Z,0.80
2018-12-07T14:34:44.357Z,1.17
2018-12-07T14:37:12.895Z,0.83
2018-12-07T14:39:41.174Z,0.90
2018-12-07T14:42:09.482Z,0.97
2018-12-07T14:44:37.883Z,0.87
2018-12-07T14:47:06.035Z,1.60
2018-12-07T14:49:34.663Z,2.50
2018-12-07T14:52:03.390Z,7.33
2018-12-07T14:54:31.645Z,0.73
2018-12-07T14:57:00.328Z,0.80
2018-12-07T14:59:29.130Z,1.03
2018-12-07T15:01:57.264Z,0.80
2018-12-07T15:04:25.529Z,3.43
2018-12-07T15:06:54.031Z,0.70
2018-12-07T15:09:22.382Z,0.70
2018-12-07T15:11:51.490Z,0.50
2018-12-07T15:14:20.989Z,0.63
2018-12-07T15:16:50.795Z,0.50
2018-12-07T15:19:20.145Z,0.70
2018-12-07T15:21:48.445Z,0.60
2018-12-07T15:24:16.779Z,0.80
2018-12-07T15:26:45.144Z,0.93
2018-12-07T15:29:13.695Z,0.80
2018-12-07T15:31:42.315Z,2.13
2018-12-07T15:34:10.748Z,1.17
2018-12-07T15:36:39.100Z,0.97
2018-12-07T15:39:09.569Z,0.70
2018-12-07T15:41:37.793Z,0.90
2018-12-07T15:44:06.054Z,0.60
2018-12-07T15:46:34.419Z,0.70
2018-12-07T15:49:03.123Z,0.77
2018-12-07T15:51:32.375Z,0.70
2018-12-07T15:54:00.606Z,0.90
2018-12-07T15:56:29.261Z,0.70
2018-12-07T15:58:57.651Z,4.37
2018-12-07T16:01:27.277Z,0.77
2018-12-07T16:03:55.754Z,0.83
2018-12-07T16:06:24.370Z,0.77
2018-12-07T16:08:52.789Z,1.80
2018-12-07T16:11:21.003Z,1.37
2018-12-07T16:13:49.502Z,0.90
2018-12-07T16:16:17.778Z,1.10
2018-12-07T16:18:46.066Z,1.17
2018-12-07T16:21:14.397Z,2.13
2018-12-07T16:23:42.911Z,1.37
2018-12-07T16:26:11.238Z,1.20
2018-12-07T16:28:39.994Z,1.30
2018-12-07T16:31:08.242Z,1.27
2018-12-07T16:33:36.570Z,1.33
2018-12-07T16:36:05.110Z,3.83
2018-12-07T16:38:33.409Z,1.37
2018-12-07T16:41:01.891Z,1.27
2018-12-07T16:43:30.479Z,2.30
2018-12-07T16:45:58.678Z,1.37
2018-12-07T16:48:27.194Z,1.83
2018-12-07T16:50:55.403Z,1.50
2018-12-07T16:53:24.126Z,4.70
2018-12-07T16:55:52.195Z,6.97
2018-12-07T16:58:20.527Z,2.00
2018-12-07T17:00:49.119Z,2.33
2018-12-07T17:03:18.908Z,1.30
2018-12-07T17:05:46.436Z,1.50
2018-12-07T17:08:15.215Z,1.80
2018-12-07T17:10:43.385Z,2.10
2018-12-07T17:13:11.594Z,5.63
2018-12-07T17:15:40.409Z,1.87
2018-12-07T17:18:08.238Z,3.73
2018-12-07T17:20:37.284Z,1.83
2018-12-07T17:23:05.355Z,1.83
2018-12-07T17:25:33.911Z,2.10
2018-12-07T17:28:04.976Z,1.90
2018-12-07T17:30:33.102Z,2.53
2018-12-07T17:33:01.480Z,2.40
2018-12-07T17:35:30.063Z,3.23
2018-12-07T17:37:58.520Z,2.53
2018-12-07T17:40:26.639Z,3.17
2018-12-07T17:42:55.072Z,3.60
2018-12-07T17:45:23.470Z,5.17
2018-12-07T17:47:51.789Z,2.87
2018-12-07T17:50:22.347Z,1.83
2018-12-07T17:52:49.318Z,2.27
2018-12-07T17:55:17.792Z,2.07
2018-12-07T17:57:46.127Z,2.00
2018-12-07T18:00:15.074Z,2.97
2018-12-07T18:02:43.202Z,3.57
2018-12-07T18:05:11.610Z,2.23
2018-12-07T18:07:40.391Z,1.90
2018-12-07T18:10:10.551Z,2.20
2018-12-07T18:12:39.815Z,9.90
2018-12-07T18:15:09.412Z,4.70
2018-12-07T18:17:38.116Z,2.10
2018-12-07T18:20:07.430Z,3.20
2018-12-07T18:22:35.756Z,2.50
2018-12-07T18:25:05.755Z,2.20
2018-12-07T18:27:34.196Z,2.40
2018-12-07T18:30:02.288Z,2.57
2018-12-07T18:32:31.362Z,2.10
2018-12-07T18:35:01.380Z,2.23
2018-12-07T18:37:29.633Z,2.27
2018-12-07T18:39:58.050Z,2.60
2018-12-07T18:42:26.459Z,2.07
2018-12-07T18:44:55.206Z,2.27
2018-12-07T18:47:23.654Z,2.03
2018-12-07T18:49:51.942Z,2.90
2018-12-07T18:52:20.344Z,2.00
2018-12-07T18:54:49.941Z,1.73
2018-12-07T18:57:18.232Z,1.77
2018-12-07T18:59:46.385Z,1.83
2018-12-07T19:02:14.915Z,1.60
2018-12-07T19:04:43.492Z,2.00
2018-12-07T19:07:11.911Z,2.40
2018-12-07T19:09:40.398Z,1.90
2018-12-07T19:12:08.823Z,3.93
2018-12-07T19:14:37.205Z,2.57
2018-12-07T19:17:05.959Z,2.50
2018-12-07T19:19:34.108Z,1.80
2018-12-07T19:22:02.502Z,2.10
2018-12-07T19:24:31.559Z,2.70
2018-12-07T19:27:00.433Z,2.63
2018-12-07T19:29:29.283Z,2.07
2018-12-07T19:31:57.478Z,1.50
2018-12-07T19:34:25.761Z,1.70
2018-12-07T19:36:55.396Z,2.77
2018-12-07T19:39:24.819Z,1.50
2018-12-07T19:41:53.226Z,1.60
2018-12-07T19:44:23.447Z,1.40
2018-12-07T19:46:49.616Z,1.50
2018-12-07T19:49:18.044Z,2.73
2018-12-07T19:51:47.126Z,3.10
2018-12-07T19:54:15.180Z,1.13
2018-12-07T19:56:43.452Z,0.73
2018-12-07T19:59:11.702Z,0.90
2018-12-07T20:01:40.189Z,0.80
2018-12-07T20:04:08.393Z,0.63
2018-12-07T20:06:36.638Z,0.60
2018-12-07T20:09:07.196Z,1.47
2018-12-07T20:11:36.607Z,1.17
2018-12-07T20:14:05.027Z,0.97
2018-12-07T20:16:33.595Z,1.13
2018-12-07T20:19:01.676Z,3.77
2018-12-07T20:21:30.149Z,2.00
2018-12-07T20:23:58.601Z,2.03
2018-12-07T20:26:26.805Z,3.37
2018-12-07T20:28:55.395Z,2.30
2018-12-07T20:31:23.505Z,1.93
2018-12-07T20:33:52.126Z,4.30
2018-12-07T20:36:20.480Z,2.30
2018-12-07T20:38:48.709Z,1.97
2018-12-07T20:41:16.923Z,5.00
2018-12-07T20:43:45.439Z,1.93
2018-12-07T20:46:13.632Z,1.80
2018-12-07T20:48:45.626Z,2.20
2018-12-07T20:51:17.939Z,1.60
2018-12-07T20:54:00.054Z,2.07
2018-12-07T20:56:28.454Z,2.03
2018-12-07T20:58:56.867Z,4.40
2018-12-07T21:01:25.530Z,4.67
2018-12-07T21:04:23.885Z,1.43
2018-12-07T21:07:25.781Z,4.33
2018-12-07T21:10:19.220Z,2.07
2018-12-07T21:14:04.356Z,1.60
2018-12-07T21:17:11.387Z,3.33
2018-12-07T21:19:43.546Z,9.33
2018-12-07T21:22:11.192Z,1.33
2018-12-07T21:24:39.489Z,2.83
2018-12-07T21:27:08.259Z,2.27
2018-12-07T21:29:36.326Z,1.97
2018-12-07T21:32:08.265Z,2.83
2018-12-07T21:34:50.802Z,2.87
2018-12-07T21:37:18.930Z,2.80
2018-12-07T21:39:53.857Z,2.20
2018-12-07T21:42:22.250Z,2.43
2018-12-07T21:44:50.946Z,3.47
2018-12-07T21:50:33.417Z,2.53
2018-12-07T21:53:01.917Z,4.50
2018-12-07T21:55:30.347Z,3.63
2018-12-07T21:57:58.822Z,3.87
2018-12-07T22:00:27.161Z,3.43
2018-12-07T22:03:01.945Z,2.87
2018-12-07T22:05:24.127Z,5.63
2018-12-07T22:07:52.257Z,3.37
2018-12-07T22:10:20.447Z,2.70
2018-12-07T22:12:49.015Z,5.23
2018-12-07T22:15:17.136Z,3.57
2018-12-07T22:17:45.457Z,3.80
2018-12-07T22:20:13.696Z,2.80
2018-12-07T22:22:42.313Z,5.27
2018-12-07T22:25:10.753Z,2.23
2018-12-07T22:27:39.241Z,3.37
2018-12-07T22:30:07.546Z,5.30
2018-12-07T22:32:36.120Z,5.33
2018-12-07T22:35:04.428Z,2.13
2018-12-07T22:37:32.802Z,3.27
2018-12-07T22:40:01.509Z,3.90
2018-12-07T22:42:29.796Z,2.43
2018-12-07T22:44:57.991Z,3.80
2018-12-07T22:47:26.351Z,2.77
2018-12-07T22:49:54.833Z,3.90
2018-12-07T22:52:23.182Z,4.03
2018-12-07T22:54:51.513Z,2.53
2018-12-07T22:57:19.870Z,3.83
2018-12-07T22:59:48.187Z,3.37
2018-12-07T23:02:16.649Z,5.93
2018-12-07T23:04:45.033Z,3.70
2018-12-07T23:07:13.338Z,3.77
2018-12-07T23:09:41.744Z,5.03
2018-12-07T23:12:10.080Z,7.33
2018-12-07T23:14:38.530Z,3.23
2018-12-07T23:17:06.910Z,6.17
2018-12-07T23:19:35.266Z,6.93
2018-12-07T23:22:04.343Z,6.73
2018-12-07T23:24:32.767Z,7.63
2018-12-07T23:27:01.169Z,4.10
2018-12-07T23:29:29.521Z,4.23
2018-12-07T23:31:57.967Z,4.77
2018-12-07T23:34:26.583Z,4.33
2018-12-07T23:36:54.958Z,3.40
2018-12-07T23:39:23.418Z,5.30
2018-12-07T23:41:51.790Z,3.87
2018-12-07T23:44:20.163Z,7.77
2018-12-07T23:46:48.443Z,5.80
2018-12-07T23:49:16.842Z,7.10
2018-12-07T23:51:45.943Z,8.73
2018-12-07T23:54:14.329Z,6.53
2018-12-07T23:56:42.723Z,7.97
2018-12-07T23:59:11.070Z,3.43
